createdAt,value
2022-10-07T00:01:10.728Z,101108.94
2022-10-07T00:03:38.684Z,101118.84
2022-10-07T00:06:06.433Z,101111.94
2022-10-07T00:08:34.012Z,101108.47
2022-10-07T00:11:01.656Z,101113.00
2022-10-07T00:13:29.287Z,101102.47
2022-10-07T00:15:57.524Z,101110.34
2022-10-07T00:18:25.244Z,101109.47
2022-10-07T00:20:52.953Z,101105.22
2022-10-07T00:23:20.544Z,101102.69
2022-10-07T00:25:48.381Z,101101.16
2022-10-07T00:28:16.420Z,101098.56
2022-10-07T00:30:44.020Z,101097.78
2022-10-07T00:33:11.636Z,101093.50
2022-10-07T00:35:39.517Z,101085.59
2022-10-07T00:38:07.090Z,101083.00
2022-10-07T00:40:35.252Z,101083.19
2022-10-07T00:43:02.896Z,101076.16
2022-10-07T00:45:31.197Z,101074.47
2022-10-07T00:47:58.767Z,101073.50
2022-10-07T00:50:26.734Z,101077.94
2022-10-07T00:52:54.901Z,101063.09
2022-10-07T00:55:22.491Z,101068.50
2022-10-07T00:57:50.576Z,101068.56
2022-10-07T01:00:18.431Z,101061.66
2022-10-07T01:02:47.858Z,101059.84
2022-10-07T01:05:16.233Z,101057.13
2022-10-07T01:07:43.952Z,101056.25
2022-10-07T01:10:12.188Z,101051.13
2022-10-07T01:12:39.826Z,101050.44
2022-10-07T01:15:08.365Z,101046.19
2022-10-07T01:17:36.651Z,101050.88
2022-10-07T01:20:04.647Z,101037.88
2022-10-07T01:22:32.202Z,101045.09
2022-10-07T01:24:59.729Z,101033.78
2022-10-07T01:27:27.318Z,101029.56
2022-10-07T01:29:56.224Z,101025.13
2022-10-07T01:32:23.832Z,101026.13
2022-10-07T01:34:51.556Z,101024.44
2022-10-07T01:37:19.133Z,101022.72
2022-10-07T01:39:46.678Z,101013.13
2022-10-07T01:42:15.527Z,101013.13
2022-10-07T01:44:43.950Z,101007.06
2022-10-07T01:47:11.500Z,101007.97
2022-10-07T01:49:39.089Z,101007.97
2022-10-07T01:52:06.621Z,101007.19
2022-10-07T01:54:34.646Z,100997.53
2022-10-07T01:57:02.277Z,100994.94
2022-10-07T01:59:30.127Z,100992.38
2022-10-07T02:01:57.850Z,100996.03
2022-10-07T02:04:25.816Z,100997.03
2022-10-07T02:06:53.935Z,100990.03
2022-10-07T02:09:21.614Z,100990.97
2022-10-07T02:11:49.225Z,100982.16
2022-10-07T02:14:16.805Z,100976.03
2022-10-07T02:16:44.334Z,100975.16
2022-10-07T02:19:12.878Z,100972.44
2022-10-07T02:21:40.444Z,100966.34
2022-10-07T02:24:07.995Z,100963.78
2022-10-07T02:26:36.021Z,100961.25
2022-10-07T02:29:03.595Z,100963.13
2022-10-07T02:31:31.849Z,100958.06
2022-10-07T02:33:59.548Z,100952.06
2022-10-07T02:36:27.095Z,100950.41
2022-10-07T02:38:54.653Z,100945.13
2022-10-07T02:41:31.569Z,100941.69
2022-10-07T02:43:59.226Z,100939.06
2022-10-07T02:46:26.872Z,100936.47
2022-10-07T02:48:57.043Z,100938.34
2022-10-07T02:51:24.609Z,100938.41
2022-10-07T02:53:52.179Z,100940.28
2022-10-07T02:56:20.390Z,100934.97
2022-10-07T02:58:47.997Z,100926.16
2022-10-07T03:01:17.522Z,100930.63
2022-10-07T03:03:45.971Z,100931.41
2022-10-07T03:06:13.564Z,100926.16
2022-10-07T03:08:41.937Z,100928.75
2022-10-07T03:11:09.902Z,100927.91
2022-10-07T03:13:37.492Z,100925.34
2022-10-07T03:16:05.563Z,100919.16
2022-10-07T03:18:33.251Z,100916.63
2022-10-07T03:21:01.456Z,100913.97
2022-10-07T03:23:29.310Z,100902.44
2022-10-07T03:25:56.906Z,100911.31
2022-10-07T03:28:24.490Z,100907.81
2022-10-07T03:30:52.124Z,100905.22
2022-10-07T03:33:20.311Z,100906.16
2022-10-07T03:35:47.892Z,100902.75
2022-10-07T03:38:15.431Z,100903.75
2022-10-07T03:40:43.019Z,100897.75
2022-10-07T03:43:10.592Z,100898.75
2022-10-07T03:45:38.816Z,100897.09
2022-10-07T03:48:06.464Z,100891.03
2022-10-07T03:50:34.004Z,100891.97
2022-10-07T03:53:01.979Z,100896.38
2022-10-07T03:55:29.593Z,100892.97
2022-10-07T03:57:59.751Z,100890.41
2022-10-07T04:00:27.463Z,100888.66
2022-10-07T04:02:55.079Z,100891.41
2022-10-07T04:05:22.892Z,100893.19
2022-10-07T04:07:50.449Z,100887.91
2022-10-07T04:10:18.763Z,100882.53
2022-10-07T04:12:48.156Z,100889.59
2022-10-07T04:15:15.686Z,100881.59
2022-10-07T04:17:43.400Z,100880.72
2022-10-07T04:20:11.006Z,100879.03
2022-10-07T04:22:39.695Z,100881.81
2022-10-07T04:25:24.750Z,100875.75
2022-10-07T04:27:52.556Z,100873.13
2022-10-07T04:30:20.131Z,100871.31
2022-10-07T04:32:48.314Z,100870.47
2022-10-07T04:35:16.155Z,100873.13
2022-10-07T04:37:44.030Z,100873.19
2022-10-07T04:40:11.852Z,100882.13
2022-10-07T04:42:57.285Z,100873.41
2022-10-07T04:45:25.167Z,100879.75
2022-10-07T04:47:52.746Z,100876.28
2022-10-07T04:50:20.335Z,100871.91
2022-10-07T04:52:47.951Z,100866.53
2022-10-07T04:55:16.008Z,100868.25
2022-10-07T04:57:44.105Z,100864.59
2022-10-07T05:00:11.958Z,100860.19
2022-10-07T05:02:40.107Z,100863.59
2022-10-07T05:05:07.689Z,100852.25
2022-10-07T05:07:35.635Z,100854.00
2022-10-07T05:10:03.250Z,100849.66
2022-10-07T05:12:30.813Z,100854.13
2022-10-07T05:14:58.439Z,100852.53
2022-10-07T05:17:26.029Z,100849.09
2022-10-07T05:19:53.950Z,100849.94
2022-10-07T05:22:21.752Z,100842.94
2022-10-07T05:24:49.323Z,100842.25
2022-10-07T05:27:16.900Z,100845.88
2022-10-07T05:29:44.493Z,100841.63
2022-10-07T05:32:12.527Z,100846.03
2022-10-07T05:34:40.186Z,100844.31
2022-10-07T05:37:07.855Z,100846.97
2022-10-07T05:39:35.930Z,100845.16
2022-10-07T05:42:03.521Z,100839.03
2022-10-07T05:44:32.636Z,100837.34
2022-10-07T05:47:00.444Z,100839.09
2022-10-07T05:49:28.033Z,100846.19
2022-10-07T05:51:55.779Z,100832.09
2022-10-07T05:54:24.449Z,100828.47
2022-10-07T05:56:52.432Z,100825.75
2022-10-07T05:59:20.694Z,100823.88
2022-10-07T06:01:48.824Z,100814.09
2022-10-07T06:04:16.514Z,100808.56
2022-10-07T06:06:44.156Z,100805.69
2022-10-07T06:09:29.625Z,100809.91
2022-10-07T06:12:14.476Z,100795.69
2022-10-07T06:14:42.526Z,100800.06
2022-10-07T06:17:10.118Z,100797.25
2022-10-07T06:19:38.178Z,100803.31
2022-10-07T06:22:06.388Z,100800.59
2022-10-07T06:24:35.402Z,100803.94
2022-10-07T06:27:03.339Z,100805.44
2022-10-07T06:29:31.046Z,100802.66
2022-10-07T06:31:59.039Z,100800.59
2022-10-07T06:34:26.784Z,100808.41
2022-10-07T06:36:54.387Z,100804.59
2022-10-07T06:39:22.350Z,100799.84
2022-10-07T06:41:52.596Z,100792.47
2022-10-07T06:44:20.838Z,100792.06
2022-10-07T06:46:48.506Z,100793.63
2022-10-07T06:49:16.351Z,100787.91
2022-10-07T06:51:44.422Z,100792.66
2022-10-07T06:54:12.032Z,100790.41
2022-10-07T06:56:40.979Z,100786.56
2022-10-07T06:59:08.677Z,100786.25
2022-10-07T07:01:36.353Z,100788.56
2022-10-07T07:04:05.631Z,100787.31
2022-10-07T07:06:33.256Z,100784.94
2022-10-07T07:09:05.760Z,100788.38
2022-10-07T07:11:41.855Z,100791.19
2022-10-07T07:14:09.756Z,100795.91
2022-10-07T07:16:37.531Z,100796.94
2022-10-07T07:19:05.853Z,100789.78
2022-10-07T07:21:34.758Z,100791.97
2022-10-07T07:24:02.613Z,100790.47
2022-10-07T07:26:30.687Z,100790.03
2022-10-07T07:28:59.292Z,100797.09
2022-10-07T07:31:27.328Z,100796.16
2022-10-07T07:33:55.603Z,100790.75
2022-10-07T07:36:23.278Z,100789.81
2022-10-07T07:38:51.777Z,100787.63
2022-10-07T07:41:19.444Z,100793.34
2022-10-07T07:43:47.630Z,100778.91
2022-10-07T07:46:15.510Z,100778.03
2022-10-07T07:48:43.437Z,100770.84
2022-10-07T07:51:11.224Z,100769.09
2022-10-07T07:53:39.385Z,100765.72
2022-10-07T07:56:07.661Z,100767.75
2022-10-07T07:58:35.444Z,100771.09
2022-10-07T08:01:03.450Z,100763.22
2022-10-07T08:03:31.680Z,100758.84
2022-10-07T08:05:59.450Z,100753.84
2022-10-07T08:08:28.055Z,100753.16
2022-10-07T08:10:55.972Z,100747.34
2022-10-07T08:13:23.771Z,100748.69
2022-10-07T08:15:51.930Z,100748.47
2022-10-07T08:18:19.869Z,100743.59
2022-10-07T08:20:48.111Z,100748.19
2022-10-07T08:23:15.946Z,100743.22
2022-10-07T08:25:44.126Z,100743.00
2022-10-07T08:28:12.148Z,100734.03
2022-10-07T08:30:40.346Z,100732.75
2022-10-07T08:33:08.582Z,100734.59
2022-10-07T08:35:36.640Z,100724.03
2022-10-07T08:38:04.394Z,100720.09
2022-10-07T08:40:32.527Z,100716.78
2022-10-07T08:43:00.527Z,100719.19
2022-10-07T08:45:29.943Z,100717.81
2022-10-07T08:47:58.257Z,100718.19
2022-10-07T08:50:25.946Z,100719.47
2022-10-07T08:52:54.876Z,100712.03
2022-10-07T08:55:22.836Z,100706.38
2022-10-07T08:57:50.731Z,100707.84
2022-10-07T09:00:18.946Z,100710.72
2022-10-07T09:02:46.884Z,100709.09
2022-10-07T09:05:15.567Z,100704.91
2022-10-07T09:07:45.698Z,100702.41
2022-10-07T09:10:14.175Z,100697.94
2022-10-07T09:12:41.902Z,100698.00
2022-10-07T09:15:09.668Z,100688.44
2022-10-07T09:17:37.785Z,100687.59
2022-10-07T09:20:05.602Z,100681.41
2022-10-07T09:22:33.970Z,100686.81
2022-10-07T09:25:01.969Z,100683.44
2022-10-07T09:27:29.956Z,100687.03
2022-10-07T09:29:58.169Z,100685.44
2022-10-07T09:32:26.120Z,100693.81
2022-10-07T09:34:54.652Z,100671.78
2022-10-07T09:37:22.648Z,100672.75
2022-10-07T09:39:50.526Z,100676.31
2022-10-07T09:42:18.638Z,100671.38
2022-10-07T09:44:46.399Z,100660.94
2022-10-07T09:47:14.566Z,100657.38
2022-10-07T09:49:42.499Z,100659.78
2022-10-07T09:52:10.140Z,100664.16
2022-10-07T09:54:38.060Z,100649.25
2022-10-07T09:57:06.370Z,100661.91
2022-10-07T09:59:34.631Z,100645.19
2022-10-07T10:02:02.766Z,100643.56
2022-10-07T10:04:30.774Z,100646.22
2022-10-07T10:06:58.758Z,100641.75
2022-10-07T10:09:26.513Z,100635.59
2022-10-07T10:11:54.832Z,100632.44
2022-10-07T10:14:22.635Z,100633.75
2022-10-07T10:16:50.615Z,100632.53
2022-10-07T10:19:19.576Z,100632.50
2022-10-07T10:21:48.221Z,100621.34
2022-10-07T10:24:16.533Z,100624.59
2022-10-07T10:26:43.431Z,100617.25
2022-10-07T10:29:11.439Z,100615.59
2022-10-07T10:31:39.462Z,100614.75
2022-10-07T10:34:07.287Z,100610.00
2022-10-07T10:36:35.383Z,100595.81
2022-10-07T10:39:03.329Z,100595.16
2022-10-07T10:41:31.379Z,100596.44
2022-10-07T10:43:59.394Z,100596.81
2022-10-07T10:46:27.408Z,100598.78
2022-10-07T10:48:55.926Z,100581.84
2022-10-07T10:51:28.449Z,100586.47
2022-10-07T10:53:56.945Z,100581.56
2022-10-07T10:56:24.936Z,100572.34
2022-10-07T10:58:54.444Z,100579.81
2022-10-07T11:01:24.756Z,100571.75
2022-10-07T11:03:52.679Z,100571.44
2022-10-07T11:06:20.539Z,100570.91
2022-10-07T11:08:48.986Z,100560.75
2022-10-07T11:11:16.690Z,100555.31
2022-10-07T11:13:47.576Z,100556.31
2022-10-07T11:16:15.519Z,100548.88
2022-10-07T11:18:43.507Z,100543.19
2022-10-07T11:21:12.193Z,100544.16
2022-10-07T11:23:41.593Z,100527.41
2022-10-07T11:26:10.724Z,100519.16
2022-10-07T11:28:38.689Z,100515.41
2022-10-07T11:31:06.410Z,100508.66
2022-10-07T11:33:34.286Z,100502.19
2022-10-07T11:36:02.060Z,100499.03
2022-10-07T11:38:30.365Z,100494.47
2022-10-07T11:40:58.119Z,100491.88
2022-10-07T11:43:26.588Z,100487.94
2022-10-07T11:45:54.679Z,100491.06
2022-10-07T11:48:22.763Z,100482.84
2022-10-07T11:50:50.988Z,100476.50
2022-10-07T11:53:18.817Z,100469.38
2022-10-07T11:55:47.884Z,100469.25
2022-10-07T11:58:18.512Z,100471.00
2022-10-07T12:00:46.479Z,100461.53
2022-10-07T12:03:14.585Z,100454.19
2022-10-07T12:05:42.894Z,100439.00
2022-10-07T12:08:10.839Z,100437.59
2022-10-07T12:10:38.985Z,100426.47
2022-10-07T12:13:06.973Z,100428.97
2022-10-07T12:15:35.371Z,100422.06
2022-10-07T12:18:03.079Z,100415.88
2022-10-07T12:20:31.050Z,100412.69
2022-10-07T12:22:59.057Z,100409.22
2022-10-07T12:25:29.386Z,100419.94
2022-10-07T12:27:58.070Z,100405.03
2022-10-07T12:30:26.048Z,100404.69
2022-10-07T12:32:53.890Z,100398.91
2022-10-07T12:35:21.912Z,100399.16
2022-10-07T12:37:51.911Z,100399.59
2022-10-07T12:40:20.141Z,100389.63
2022-10-07T12:42:48.182Z,100389.22
2022-10-07T12:45:16.005Z,100386.28
2022-10-07T12:47:43.787Z,100388.09
2022-10-07T12:50:11.967Z,100386.09
2022-10-07T12:52:40.995Z,100384.53
2022-10-07T12:55:09.716Z,100383.31
2022-10-07T12:57:37.500Z,100379.50
2022-10-07T13:00:05.613Z,100373.47
2022-10-07T13:02:33.942Z,100371.09
2022-10-07T13:05:02.174Z,100365.22
2022-10-07T13:07:29.940Z,100364.22
2022-10-07T13:09:57.875Z,100355.78
2022-10-07T13:12:26.428Z,100349.16
2022-10-07T13:14:54.432Z,100344.78
2022-10-07T13:17:22.523Z,100341.22
2022-10-07T13:19:50.143Z,100339.84
2022-10-07T13:22:18.010Z,100328.00
2022-10-07T13:24:47.243Z,100331.75
2022-10-07T13:27:15.602Z,100319.34
2022-10-07T13:29:43.592Z,100329.28
2022-10-07T13:32:11.319Z,100325.81
2022-10-07T13:34:39.136Z,100322.75
2022-10-07T13:37:06.974Z,100316.59
2022-10-07T13:39:35.018Z,100308.69
2022-10-07T13:42:03.641Z,100306.69
2022-10-07T13:44:31.451Z,100302.28
2022-10-07T13:47:00.168Z,100305.97
2022-10-07T13:49:28.092Z,100300.53
2022-10-07T13:51:56.467Z,100299.91
2022-10-07T13:54:25.124Z,100286.91
2022-10-07T13:56:53.644Z,100287.84
2022-10-07T13:59:22.229Z,100286.34
2022-10-07T14:01:50.171Z,100281.19
2022-10-07T14:04:18.125Z,100276.84
2022-10-07T14:06:46.384Z,100277.28
2022-10-07T14:09:14.237Z,100265.31
2022-10-07T14:11:43.458Z,100256.41
2022-10-07T14:14:11.563Z,100255.94
2022-10-07T14:16:40.289Z,100261.75
2022-10-07T14:19:08.400Z,100249.38
2022-10-07T14:21:36.263Z,100253.19
2022-10-07T14:24:04.095Z,100244.28
2022-10-07T14:26:31.916Z,100244.06
2022-10-07T14:29:00.046Z,100234.44
2022-10-07T14:31:45.727Z,100233.09
2022-10-07T14:34:30.919Z,100230.66
2022-10-07T14:36:59.265Z,100222.19
2022-10-07T14:39:27.297Z,100222.03
2022-10-07T14:41:55.550Z,100214.38
2022-10-07T14:44:23.341Z,100208.28
2022-10-07T14:46:51.454Z,100209.53
2022-10-07T14:49:19.318Z,100206.25
2022-10-07T14:51:49.385Z,100205.13
2022-10-07T14:54:17.426Z,100202.03
2022-10-07T14:56:45.236Z,100203.84
2022-10-07T14:59:13.420Z,100202.41
2022-10-07T15:01:41.050Z,100201.22
2022-10-07T15:04:10.476Z,100199.34
2022-10-07T15:06:39.224Z,100192.75
2022-10-07T15:09:06.987Z,100187.53
2022-10-07T15:11:36.059Z,100184.19
2022-10-07T15:14:03.837Z,100179.06
2022-10-07T15:16:32.338Z,100179.91
2022-10-07T15:19:02.542Z,100177.88
2022-10-07T15:21:30.999Z,100172.91
2022-10-07T15:23:58.920Z,100180.84
2022-10-07T15:26:26.864Z,100174.44
2022-10-07T15:28:55.372Z,100161.47
2022-10-07T15:31:23.772Z,100162.66
2022-10-07T15:33:51.656Z,100160.63
2022-10-07T15:36:19.481Z,100154.50
2022-10-07T15:38:47.182Z,100162.25
2022-10-07T15:41:15.138Z,100163.63
2022-10-07T15:43:43.967Z,100162.97
2022-10-07T15:46:13.339Z,100157.47
2022-10-07T15:48:41.174Z,100154.00
2022-10-07T15:51:09.103Z,100156.84
2022-10-07T15:53:36.999Z,100156.03
2022-10-07T15:56:07.832Z,100156.41
2022-10-07T15:58:35.694Z,100166.34
2022-10-07T16:01:03.612Z,100154.34
2022-10-07T16:03:31.454Z,100165.44
2022-10-07T16:06:00.698Z,100148.84
2022-10-07T16:08:28.764Z,100159.59
2022-10-07T16:10:56.626Z,100151.59
2022-10-07T16:13:24.514Z,100158.44
2022-10-07T16:15:52.447Z,100151.97
2022-10-07T16:18:20.537Z,100147.81
2022-10-07T16:20:48.769Z,100150.94
2022-10-07T16:23:16.664Z,100148.69
2022-10-07T16:25:44.494Z,100148.25
2022-10-07T16:28:30.109Z,100145.78
2022-10-07T16:30:58.737Z,100141.53
2022-10-07T16:33:27.313Z,100142.63
2022-10-07T16:35:55.749Z,100140.47
2022-10-07T16:38:23.674Z,100136.28
2022-10-07T16:40:51.615Z,100144.59
2022-10-07T16:43:20.186Z,100138.72
2022-10-07T16:45:47.963Z,100140.25
2022-10-07T16:48:17.647Z,100137.25
2022-10-07T16:50:47.333Z,100139.56
2022-10-07T16:53:15.128Z,100140.91
2022-10-07T16:55:44.059Z,100133.34
2022-10-07T16:58:12.077Z,100139.00
2022-10-07T17:00:41.444Z,100143.84
2022-10-07T17:03:09.800Z,100136.97
2022-10-07T17:05:39.460Z,100130.94
2022-10-07T17:08:08.015Z,100133.75
2022-10-07T17:10:36.348Z,100133.09
2022-10-07T17:13:04.921Z,100135.75
2022-10-07T17:15:32.787Z,100128.88
2022-10-07T17:18:00.665Z,100138.16
2022-10-07T17:20:29.387Z,100141.81
2022-10-07T17:22:57.093Z,100145.47
2022-10-07T17:25:24.932Z,100140.81
2022-10-07T17:27:52.715Z,100137.56
2022-10-07T17:30:20.594Z,100139.53
2022-10-07T17:32:49.930Z,100143.31
2022-10-07T17:35:18.434Z,100143.75
2022-10-07T17:37:46.493Z,100144.16
2022-10-07T17:40:14.650Z,100133.13
2022-10-07T17:42:42.639Z,100134.53
2022-10-07T17:45:12.776Z,100130.47
2022-10-07T17:47:40.546Z,100130.88
2022-10-07T17:50:08.402Z,100130.31
2022-10-07T17:52:36.363Z,100132.41
2022-10-07T17:55:04.498Z,100128.41
2022-10-07T17:57:34.091Z,100123.75
2022-10-07T18:00:04.769Z,100128.38
2022-10-07T18:02:33.071Z,100128.59
2022-10-07T18:05:02.055Z,100119.94
2022-10-07T18:07:30.932Z,100124.53
2022-10-07T18:09:59.932Z,100123.84
2022-10-07T18:12:45.125Z,100129.16
2022-10-07T18:15:22.217Z,100136.25
2022-10-07T18:17:51.083Z,100134.25
2022-10-07T18:20:18.930Z,100125.63
2022-10-07T18:22:46.707Z,100127.31
2022-10-07T18:25:14.525Z,100124.53
2022-10-07T18:27:43.643Z,100124.53
2022-10-07T18:30:11.682Z,100127.22
2022-10-07T18:32:39.956Z,100120.28
2022-10-07T18:35:07.985Z,100128.44
2022-10-07T18:37:36.380Z,100125.06
2022-10-07T18:40:04.782Z,100109.03
2022-10-07T18:42:32.648Z,100112.41
2022-10-07T18:45:01.386Z,100105.25
2022-10-07T18:47:29.249Z,100109.84
2022-10-07T18:49:57.667Z,100102.22
2022-10-07T18:52:25.504Z,100097.16
2022-10-07T18:54:53.452Z,100101.66
2022-10-07T18:57:22.428Z,100095.72
2022-10-07T18:59:50.233Z,100100.47
2022-10-07T19:02:18.490Z,100101.72
2022-10-07T19:04:46.259Z,100093.13
2022-10-07T19:07:14.052Z,100097.59
2022-10-07T19:09:42.402Z,100098.34
2022-10-07T19:12:30.123Z,100100.25
2022-10-07T19:14:56.955Z,100095.06
2022-10-07T19:17:24.834Z,100093.63
2022-10-07T19:19:52.630Z,100097.53
2022-10-07T19:22:20.794Z,100098.88
2022-10-07T19:25:05.799Z,100093.94
2022-10-07T19:27:33.630Z,100091.53
2022-10-07T19:30:02.093Z,100093.59
2022-10-07T19:32:29.927Z,100098.47
2022-10-07T19:34:57.792Z,100097.88
2022-10-07T19:37:25.659Z,100104.56
2022-10-07T19:39:53.521Z,100101.41
2022-10-07T19:42:22.585Z,100104.63
2022-10-07T19:44:50.357Z,100098.19
2022-10-07T19:47:18.685Z,100100.53
2022-10-07T19:49:46.690Z,100106.44
2022-10-07T19:52:14.964Z,100106.81
2022-10-07T19:54:46.411Z,100112.63
2022-10-07T19:57:14.321Z,100100.38
2022-10-07T19:59:42.082Z,100110.22
2022-10-07T20:02:10.102Z,100106.09
2022-10-07T20:04:41.596Z,100109.97
2022-10-07T20:07:10.071Z,100114.59
2022-10-07T20:09:37.918Z,100108.38
2022-10-07T20:12:05.872Z,100113.44
2022-10-07T20:14:35.616Z,100115.06
2022-10-07T20:17:03.630Z,100108.13
2022-10-07T20:19:32.193Z,100109.31
2022-10-07T20:22:01.578Z,100103.59
2022-10-07T20:24:29.318Z,100097.00
2022-10-07T20:26:57.865Z,100099.94
2022-10-07T20:29:26.323Z,100099.47
2022-10-07T20:31:54.853Z,100091.84
2022-10-07T20:34:22.782Z,100096.59
2022-10-07T20:36:50.599Z,100087.28
2022-10-07T20:39:35.939Z,100092.88
2022-10-07T20:42:21.351Z,100086.22
2022-10-07T20:44:49.925Z,100092.19
2022-10-07T20:47:17.700Z,100094.38
2022-10-07T20:49:45.594Z,100084.09
2022-10-07T20:52:13.503Z,100092.38
2022-10-07T20:54:41.922Z,100087.53
2022-10-07T20:57:09.677Z,100096.88
2022-10-07T20:59:37.480Z,100084.25
2022-10-07T21:02:09.500Z,100092.38
2022-10-07T21:04:37.629Z,100094.22
2022-10-07T21:07:06.056Z,100094.13
2022-10-07T21:09:36.578Z,100090.38
2022-10-07T21:12:05.301Z,100092.53
2022-10-07T21:14:33.038Z,100092.09
2022-10-07T21:17:01.473Z,100093.16
2022-10-07T21:19:29.390Z,100085.41
2022-10-07T21:21:57.404Z,100085.75
2022-10-07T21:24:25.401Z,100082.50
2022-10-07T21:26:53.140Z,100071.97
2022-10-07T21:29:20.936Z,100075.56
2022-10-07T21:31:49.531Z,100070.41
2022-10-07T21:34:17.498Z,100071.97
2022-10-07T21:36:50.406Z,100073.66
2022-10-07T21:39:20.788Z,100068.56
2022-10-07T21:41:50.299Z,100063.00
2022-10-07T21:44:18.031Z,100061.91
2022-10-07T21:46:46.483Z,100070.59
2022-10-07T21:49:14.265Z,100066.84
2022-10-07T21:51:42.007Z,100068.19
2022-10-07T21:54:10.026Z,100073.81
2022-10-07T21:56:38.316Z,100069.72
2022-10-07T21:59:05.974Z,100069.81
2022-10-07T22:01:33.863Z,100061.22
2022-10-07T22:04:01.618Z,100064.84
2022-10-07T22:06:47.222Z,100057.13
2022-10-07T22:09:14.986Z,100048.38
2022-10-07T22:11:42.900Z,100063.41
2022-10-07T22:14:12.808Z,100056.25
2022-10-07T22:16:40.828Z,100061.22
2022-10-07T22:19:08.465Z,100051.69
2022-10-07T22:21:40.262Z,100047.25
2022-10-07T22:24:08.429Z,100047.13
2022-10-07T22:26:37.953Z,100054.38
2022-10-07T22:29:05.654Z,100049.56
2022-10-07T22:31:33.727Z,100049.19
2022-10-07T22:34:01.771Z,100048.00
2022-10-07T22:36:29.186Z,100042.91
2022-10-07T22:38:56.867Z,100044.38
2022-10-07T22:41:24.495Z,100038.66
2022-10-07T22:43:54.462Z,100028.34
2022-10-07T22:46:26.571Z,100028.34
2022-10-07T22:48:54.689Z,100029.31
2022-10-07T22:51:22.292Z,100028.66
2022-10-07T22:53:50.373Z,100023.22
2022-10-07T22:56:18.080Z,100028.44
2022-10-07T22:58:46.038Z,100022.00
2022-10-07T23:01:13.629Z,100018.97
2022-10-07T23:03:43.887Z,100018.59
2022-10-07T23:06:11.595Z,99999.44
2022-10-07T23:08:39.244Z,100000.03
2022-10-07T23:11:06.875Z,100001.56
2022-10-07T23:13:34.537Z,100000.47
2022-10-07T23:16:02.248Z,100002.06
2022-10-07T23:18:29.961Z,100005.44
2022-10-07T23:20:57.946Z,100000.59
2022-10-07T23:23:26.376Z,100004.72
2022-10-07T23:25:53.960Z,99992.69
2022-10-07T23:28:21.868Z,99993.00
2022-10-07T23:30:49.562Z,99984.75
2022-10-07T23:33:17.529Z,99987.16
2022-10-07T23:35:46.736Z,99983.78
2022-10-07T23:38:14.434Z,99981.22
2022-10-07T23:40:42.196Z,99980.25
2022-10-07T23:43:11.602Z,99974.78
2022-10-07T23:45:39.549Z,99980.00
2022-10-07T23:48:07.330Z,99974.66
2022-10-07T23:50:34.947Z,99965.81
2022-10-07T23:53:02.684Z,99967.50
2022-10-07T23:55:30.304Z,99965.69
2022-10-07T23:57:58.333Z,99975.38
